Time;durP1;ratioP1;P1;durP2;ratioP2;P2;SDS_P1;SDS_P2;PMS_P1;PMS_P2;Temp;Humidity;BMP_temperature;BMP_pressure;BME280_temperature;BME280_humidity;BME280_pressure;Samples;Min_cycle;Max_cycle;Signal;HPM_P1;HPM_P2
2021/03/14 00:02:20;;;;;;;8.05;4.18;;;;;;;1.60;100.00;92935.41;5009916;28;19925;-77
2021/03/14 00:04:47;;;;;;;10.55;3.92;;;;;;;1.65;100.00;92927.31;5013561;28;20045;-77
2021/03/14 00:07:14;;;;;;;9.15;4.25;;;;;;;1.67;100.00;92917.78;5013506;28;20050;-77
2021/03/14 00:09:40;;;;;;;9.82;5.57;;;;;;;1.79;100.00;92927.56;5013556;28;20042;-77
2021/03/14 00:12:08;;;;;;;12.60;4.47;;;;;;;1.85;100.00;92927.72;5013083;28;20053;-77
2021/03/14 00:14:34;;;;;;;13.88;5.38;;;;;;;1.86;100.00;92926.75;5013157;28;20045;-77
2021/03/14 00:17:00;;;;;;;9.45;4.68;;;;;;;1.80;100.00;92919.81;5013303;28;20053;-77
2021/03/14 00:19:27;;;;;;;23.77;8.82;;;;;;;1.61;100.00;92918.44;5013093;28;20057;-76
2021/03/14 00:21:53;;;;;;;13.98;7.85;;;;;;;1.33;100.00;92923.88;5013101;28;20097;-76
2021/03/14 00:24:20;;;;;;;;;;;;;;;1.33;100.00;92919.63;5013593;28;20050;-76
2021/03/14 00:26:46;;;;;;;16.52;9.00;;;;;;;1.26;100.00;92917.88;5012946;28;19925;-76
2021/03/14 00:29:12;;;;;;;;;;;;;;;1.37;100.00;92916.75;5013616;28;20049;-76
2021/03/14 00:31:39;;;;;;;19.35;11.75;;;;;;;1.13;100.00;92880.41;5012571;28;20441;-77
2021/03/14 00:34:05;;;;;;;;;;;;;;;1.36;100.00;92905.03;5013030;28;20499;-77
2021/03/14 00:36:31;;;;;;;14.13;5.47;;;;;;;1.26;100.00;92890.03;5013069;28;19928;-77
2021/03/14 00:38:57;;;;;;;;;;;;;;;1.28;100.00;92909.19;5013067;28;20062;-77
2021/03/14 00:41:24;;;;;;;10.05;5.35;;;;;;;1.30;100.00;92899.69;5012801;28;19925;-77
2021/03/14 00:43:51;;;;;;;19.58;7.78;;;;;;;1.28;100.00;92891.47;5012587;28;20487;-78
2021/03/14 00:46:17;;;;;;;17.42;8.07;;;;;;;1.24;100.00;92885.13;5012641;28;20050;-77
2021/03/14 00:48:43;;;;;;;;;;;;;;;1.33;100.00;92896.84;5013274;28;20140;-78
2021/03/14 00:51:09;;;;;;;12.73;6.57;;;;;;;1.27;100.00;92894.16;5012345;28;19921;-78
2021/03/14 00:53:36;;;;;;;19.08;10.93;;;;;;;1.32;100.00;92902.06;5012689;28;20050;-78
2021/03/14 00:56:02;;;;;;;18.88;7.60;;;;;;;1.40;100.00;92896.19;5012208;28;20046;-78
2021/03/14 00:58:29;;;;;;;14.00;9.50;;;;;;;1.39;100.00;92897.16;5012695;28;20076;-77
2021/03/14 01:00:55;;;;;;;13.10;7.32;;;;;;;1.37;100.00;92892.25;5012251;28;20049;-77
2021/03/14 01:03:21;;;;;;;;;;;;;;;1.34;100.00;92892.53;5012952;28;20052;-77
2021/03/14 01:05:48;;;;;;;33.88;11.80;;;;;;;1.21;100.00;92893.06;5012299;28;19972;-77
2021/03/14 01:08:16;;;;;;;;;;;;;;;1.28;100.00;92900.78;5012872;28;20060;-77
2021/03/14 01:10:42;;;;;;;19.77;7.72;;;;;;;1.23;100.00;92906.34;5012216;28;20248;-77
2021/03/14 01:13:09;;;;;;;26.05;9.40;;;;;;;1.19;100.00;92898.28;5012079;28;20053;-77
2021/03/14 01:15:36;;;;;;;;;;;;;;;1.21;100.00;92888.00;5012560;28;20056;-77
2021/03/14 01:18:02;;;;;;;17.90;8.52;;;;;;;1.12;100.00;92888.94;5011752;28;20315;-77
2021/03/14 01:20:28;;;;;;;16.88;8.15;;;;;;;1.01;100.00;92880.72;5012453;28;20046;-77
2021/03/14 01:22:55;;;;;;;20.83;7.60;;;;;;;1.02;100.00;92887.38;5012081;28;20056;-77
2021/03/14 01:25:21;;;;;;;;;;;;;;;0.99;100.00;92889.44;5012287;28;20064;-77
2021/03/14 01:27:47;;;;;;;17.65;9.55;;;;;;;0.77;100.00;92848.66;5011980;28;19984;-77
2021/03/14 01:30:14;;;;;;;;;;;;;;;0.89;100.00;92887.06;5012129;28;20054;-77
2021/03/14 01:32:41;;;;;;;21.25;11.02;;;;;;;0.63;100.00;92875.34;5011718;28;19921;-77
2021/03/14 01:35:08;;;;;;;30.90;13.65;;;;;;;0.70;100.00;92880.56;5011348;28;20054;-77
2021/03/14 01:37:35;;;;;;;35.45;13.98;;;;;;;0.79;100.00;92887.22;5011829;28;20057;-77
2021/03/14 01:40:01;;;;;;;27.95;15.25;;;;;;;0.60;100.00;92868.88;5011720;28;20415;-77
2021/03/14 01:42:28;;;;;;;44.70;16.27;;;;;;;0.62;100.00;92879.63;5011600;28;20050;-77
2021/03/14 01:44:55;;;;;;;41.20;11.80;;;;;;;0.65;100.00;92871.72;5011670;28;20419;-77
2021/03/14 01:47:30;;;;;;;30.40;11.95;;;;;;;0.79;100.00;92875.38;5011598;28;20050;-77
2021/03/14 01:49:58;;;;;;;23.60;13.82;;;;;;;0.83;100.00;92877.59;4997623;28;20054;-78
2021/03/14 01:52:24;;;;;;;29.02;11.75;;;;;;;0.89;100.00;92882.78;5011646;28;20050;-77
2021/03/14 01:54:50;;;;;;;22.70;10.75;;;;;;;0.94;100.00;92884.84;5011478;28;20054;-77
2021/03/14 01:57:17;;;;;;;24.60;11.98;;;;;;;0.96;100.00;92880.41;5011295;28;20517;-76
2021/03/14 01:59:43;;;;;;;27.15;10.60;;;;;;;0.96;100.00;92882.94;5011372;28;20498;-77
2021/03/14 02:02:10;;;;;;;18.77;9.95;;;;;;;0.96;100.00;92880.41;5011301;28;20423;-77
2021/03/14 02:04:36;;;;;;;20.63;11.68;;;;;;;0.89;100.00;92877.72;5011042;28;20496;-77
2021/03/14 02:07:03;;;;;;;23.48;13.45;;;;;;;0.94;100.00;92882.31;5011371;28;20100;-77
2021/03/14 02:09:30;;;;;;;40.63;12.52;;;;;;;1.03;100.00;92880.56;5011092;28;20454;-77
2021/03/14 02:12:01;;;;;;;26.40;13.80;;;;;;;1.08;100.00;92872.50;5011255;28;20049;-77
2021/03/14 02:14:28;;;;;;;27.38;13.15;;;;;;;1.11;100.00;92878.03;5011069;28;20104;-77
2021/03/14 02:16:57;;;;;;;22.55;11.63;;;;;;;1.17;100.00;92874.09;5010793;28;20072;-77
2021/03/14 02:19:28;;;;;;;23.98;11.95;;;;;;;1.31;100.00;92875.94;5010701;28;20112;-77
2021/03/14 02:21:58;;;;;;;25.25;11.75;;;;;;;1.36;100.00;92872.16;5010780;28;20049;-77
2021/03/14 02:24:28;;;;;;;24.63;10.75;;;;;;;1.39;100.00;92869.31;5010671;28;20069;-78
2021/03/14 02:27:02;;;;;;;19.50;10.25;;;;;;;1.41;100.00;92868.19;5010384;28;20411;-79
2021/03/14 02:29:29;;;;;;;15.80;9.35;;;;;;;1.47;100.00;92869.28;5010687;28;20096;-76
2021/03/14 02:31:57;;;;;;;13.52;7.57;;;;;;;1.45;100.00;92850.94;5010873;28;20108;-76
2021/03/14 02:34:28;;;;;;;19.25;9.20;;;;;;;1.56;100.00;92867.50;5010816;28;20049;-76
2021/03/14 02:36:56;;;;;;;16.92;8.98;;;;;;;1.62;100.00;92866.06;5010775;28;20046;-77
2021/03/14 02:39:24;;;;;;;11.73;7.35;;;;;;;1.62;100.00;92871.91;5010410;28;20495;-77
2021/03/14 02:41:53;;;;;;;17.23;9.00;;;;;;;1.64;100.00;92871.75;5010387;28;20046;-77
2021/03/14 02:44:23;;;;;;;14.90;8.32;;;;;;;1.64;100.00;92866.69;5010503;28;20073;-77
2021/03/14 02:46:52;;;;;;;21.83;9.90;;;;;;;1.68;100.00;92866.22;5010305;28;20050;-77
2021/03/14 02:49:20;;;;;;;19.90;9.77;;;;;;;1.72;100.00;92871.75;5010748;28;20056;-77
2021/03/14 02:51:47;;;;;;;18.85;10.45;;;;;;;1.70;100.00;92863.50;5010368;28;20066;-77
2021/03/14 02:54:15;;;;;;;22.15;12.25;;;;;;;1.72;100.00;92867.47;5010056;28;20054;-77
2021/03/14 02:56:43;;;;;;;32.80;11.30;;;;;;;1.73;100.00;92860.66;5010157;28;20046;-77
2021/03/14 02:59:10;;;;;;;14.63;7.05;;;;;;;1.73;100.00;92856.38;5010289;28;20054;-78
2021/03/14 03:01:38;;;;;;;10.43;5.93;;;;;;;1.70;100.00;92863.50;5010107;28;20049;-79
2021/03/14 03:04:04;;;;;;;12.73;6.93;;;;;;;1.76;100.00;92855.25;5010177;28;20522;-77
2021/03/14 03:06:33;;;;;;;12.02;6.78;;;;;;;1.77;100.00;92853.53;5010507;28;20045;-78
2021/03/14 03:09:00;;;;;;;16.33;8.68;;;;;;;1.72;100.00;92854.78;5010039;28;20054;-78
2021/03/14 03:11:26;;;;;;;18.45;8.98;;;;;;;1.75;100.00;92845.31;5009766;28;20096;-79
2021/03/14 03:13:53;;;;;;;14.13;9.23;;;;;;;1.64;100.00;92831.25;5009942;28;20053;-79
2021/03/14 03:16:23;;;;;;;13.15;7.18;;;;;;;1.69;100.00;92845.00;5010084;28;20042;-78
2021/03/14 03:18:52;;;;;;;10.13;6.95;;;;;;;1.64;100.00;92838.84;5010030;28;20054;-78
2021/03/14 03:21:21;;;;;;;14.90;8.27;;;;;;;1.59;100.00;92835.06;5009654;28;21100;-79
2021/03/14 03:23:47;;;;;;;15.27;6.95;;;;;;;1.47;100.00;92831.31;5009841;28;20046;-78
2021/03/14 03:26:14;;;;;;;;;;;;;;;1.57;100.00;92843.78;5010038;28;20057;-78
2021/03/14 03:28:40;;;;;;;12.15;6.40;;;;;;;1.26;100.00;92809.06;5009602;28;19933;-78
2021/03/14 03:31:07;;;;;;;13.30;7.72;;;;;;;1.41;100.00;92839.56;5009581;28;20499;-79
2021/03/14 03:33:33;;;;;;;15.57;7.03;;;;;;;1.44;100.00;92836.72;5009570;28;20045;-78
2021/03/14 03:36:00;;;;;;;14.00;7.18;;;;;;;1.40;100.00;92833.72;5009488;28;20100;-77
2021/03/14 03:38:27;;;;;;;11.38;7.57;;;;;;;1.43;100.00;92843.50;5008433;28;20127;-77
2021/03/14 03:40:54;;;;;;;15.30;7.63;;;;;;;1.40;100.00;92833.72;5009725;28;20466;-77
2021/03/14 03:43:25;;;;;;;15.82;6.45;;;;;;;1.41;100.00;92832.75;5009736;28;20458;-77
2021/03/14 03:45:56;;;;;;;11.70;5.93;;;;;;;1.52;100.00;92836.66;5009413;28;20053;-77
2021/03/14 03:48:29;;;;;;;12.77;6.78;;;;;;;1.45;100.00;92821.34;5009465;28;20049;-77
2021/03/14 03:50:57;;;;;;;17.63;10.38;;;;;;;1.21;100.00;92837.41;5009355;28;20085;-77
2021/03/14 03:53:25;;;;;;;16.10;8.18;;;;;;;1.22;100.00;92838.16;5009642;28;20487;-77
2021/03/14 03:55:53;;;;;;;14.48;10.23;;;;;;;1.08;100.00;92817.66;5009387;28;20053;-78
2021/03/14 03:58:22;;;;;;;19.98;11.60;;;;;;;1.20;100.00;92840.84;5009163;28;20065;-76
2021/03/14 04:00:49;;;;;;;23.13;11.45;;;;;;;1.24;100.00;92837.06;5009654;28;20104;-77
2021/03/14 04:03:15;;;;;;;19.75;9.23;;;;;;;1.23;100.00;92830.44;5009319;28;20050;-77
2021/03/14 04:05:43;;;;;;;33.42;15.35;;;;;;;1.04;100.00;92829.84;5009683;28;20415;-76
2021/03/14 04:08:10;;;;;;;53.75;20.25;;;;;;;0.92;100.00;92836.16;5009090;28;20065;-76
2021/03/14 04:10:38;;;;;;;43.17;19.90;;;;;;;0.74;100.00;92819.41;5009486;28;20407;-76
2021/03/14 04:13:06;;;;;;;36.47;14.50;;;;;;;0.73;100.00;92806.94;5008828;28;20046;-76
2021/03/14 04:15:33;;;;;;;33.55;14.65;;;;;;;0.70;100.00;92820.72;5009314;28;20427;-77
2021/03/14 04:18:00;;;;;;;19.85;10.75;;;;;;;0.66;100.00;92819.44;5009224;28;20104;-77
2021/03/14 04:20:30;;;;;;;23.15;9.80;;;;;;;0.78;100.00;92809.78;5008757;28;20050;-76
2021/03/14 04:22:59;;;;;;;18.15;8.40;;;;;;;0.75;100.00;92810.88;5009224;28;20049;-76
2021/03/14 04:25:26;;;;;;;14.77;8.55;;;;;;;0.71;100.00;92796.19;5008895;28;20034;-77
2021/03/14 04:27:56;;;;;;;25.00;9.55;;;;;;;0.90;100.00;92795.88;5009300;28;20046;-77
2021/03/14 04:30:25;;;;;;;24.83;12.85;;;;;;;0.75;100.00;92798.25;5009001;28;20499;-77
2021/03/14 04:32:53;;;;;;;20.15;11.13;;;;;;;0.96;100.00;92796.97;5008923;28;20050;-77
2021/03/14 04:35:20;;;;;;;21.67;10.10;;;;;;;0.81;100.00;92796.81;5009210;28;20053;-78
2021/03/14 04:37:47;;;;;;;24.95;10.43;;;;;;;0.63;100.00;92795.28;5008989;28;20053;-77
2021/03/14 04:40:15;;;;;;;14.13;8.73;;;;;;;0.65;100.00;92793.34;5009099;28;20064;-77
2021/03/14 04:42:45;;;;;;;16.27;10.38;;;;;;;0.61;100.00;92798.91;5009205;28;20054;-77
2021/03/14 04:45:13;;;;;;;22.48;9.38;;;;;;;0.60;100.00;92788.00;5009153;28;20046;-77
2021/03/14 04:47:41;;;;;;;25.65;10.35;;;;;;;0.73;100.00;92794.28;5009159;28;20124;-77
2021/03/14 04:50:10;;;;;;;32.95;10.40;;;;;;;0.90;100.00;92797.59;5011942;28;20138;-77
2021/03/14 04:52:37;;;;;;;19.02;11.23;;;;;;;0.87;100.00;92805.50;5012423;28;20046;-77
2021/03/14 04:55:05;;;;;;;32.67;9.68;;;;;;;0.69;100.00;92798.13;5012715;28;20455;-77
2021/03/14 04:57:33;;;;;;;23.70;10.15;;;;;;;0.50;100.00;92795.75;5012485;28;20046;-77
2021/03/14 05:00:06;;;;;;;30.88;12.07;;;;;;;0.49;100.00;92795.91;5012129;28;20053;-77
2021/03/14 05:02:35;;;;;;;29.60;15.23;;;;;;;0.59;100.00;92778.84;5012634;28;20100;-77
2021/03/14 05:05:04;;;;;;;36.80;12.85;;;;;;;0.60;100.00;92793.03;5012802;28;20054;-77
2021/03/14 05:07:31;;;;;;;25.30;13.85;;;;;;;0.64;100.00;92791.78;5012317;28;20832;-77
2021/03/14 05:09:58;;;;;;;43.60;15.93;;;;;;;0.68;100.00;92792.25;5012279;28;20053;-77
2021/03/14 05:12:26;;;;;;;43.35;18.77;;;;;;;0.56;100.00;92793.53;5011976;28;20063;-77
2021/03/14 05:14:53;;;;;;;42.63;19.42;;;;;;;0.54;100.00;92791.16;5012783;28;20129;-77
2021/03/14 05:17:20;;;;;;;36.47;17.65;;;;;;;0.39;100.00;92753.09;5012374;28;20041;-77
2021/03/14 05:19:48;;;;;;;41.10;21.83;;;;;;;0.66;100.00;92779.00;5011978;28;20431;-78
2021/03/14 05:22:18;;;;;;;42.28;20.35;;;;;;;0.83;100.00;92789.84;5012085;28;20046;-78
2021/03/14 05:24:46;;;;;;;51.10;20.42;;;;;;;0.80;100.00;92778.31;5008079;28;20053;-78
2021/03/14 05:27:13;;;;;;;53.88;22.65;;;;;;;0.77;100.00;92760.97;5011406;28;20108;-78
2021/03/14 05:29:40;;;;;;;44.78;22.50;;;;;;;0.79;100.00;92765.88;5011694;28;20060;-79
2021/03/14 05:32:07;;;;;;;42.53;21.30;;;;;;;0.89;100.00;92775.81;4994768;28;20058;-79
2021/03/14 05:34:33;;;;;;;53.85;23.27;;;;;;;0.82;100.00;92775.66;5009274;28;20050;-80
2021/03/14 05:37:00;;;;;;;;;;;;;;;0.98;100.00;92779.09;5011419;28;20053;-80
2021/03/14 05:39:27;;;;;;;57.92;26.20;;;;;;;1.04;100.00;92780.97;5011670;28;19934;-79
2021/03/14 05:41:53;;;;;;;36.40;21.95;;;;;;;0.97;100.00;92770.72;5004723;28;20058;-79
2021/03/14 05:44:21;;;;;;;62.97;23.95;;;;;;;1.00;100.00;92731.66;5009232;28;20096;-79
2021/03/14 05:46:48;;;;;;;44.97;21.63;;;;;;;1.46;100.00;92767.25;5011404;28;20054;-79
2021/03/14 05:49:14;;;;;;;56.33;29.20;;;;;;;1.62;100.00;92764.81;5011667;28;20046;-80
2021/03/14 05:51:43;;;;;;;52.03;25.75;;;;;;;1.57;100.00;92753.44;5011520;28;20042;-79
2021/03/14 05:54:12;;;;;;;59.65;21.48;;;;;;;1.96;100.00;92771.28;5011509;28;20112;-79
2021/03/14 05:56:42;;;;;;;56.65;24.98;;;;;;;1.96;100.00;92746.75;5011687;28;20050;-79
2021/03/14 05:59:09;;;;;;;42.15;17.25;;;;;;;2.09;100.00;92745.38;5002430;28;20050;-80
2021/03/14 06:01:37;;;;;;;54.78;20.48;;;;;;;2.25;100.00;92757.94;4990710;28;20046;-79
2021/03/14 06:04:07;;;;;;;29.17;14.32;;;;;;;2.29;100.00;92753.31;4991413;28;20050;-78
2021/03/14 06:06:33;;;;;;;31.10;15.30;;;;;;;2.44;100.00;92757.66;4991573;28;20054;-79
2021/03/14 06:08:59;;;;;;;;;;;;;;;2.43;100.00;92763.66;4992259;28;20053;-79
2021/03/14 06:11:27;;;;;;;20.00;10.32;;;;;;;2.36;100.00;92768.66;4991802;28;19921;-78
2021/03/14 06:13:53;;;;;;;29.15;15.98;;;;;;;2.28;100.00;92772.03;4991790;28;20046;-78
2021/03/14 06:16:19;;;;;;;;;;;;;;;2.30;100.00;92777.69;4992081;28;20051;-78
2021/03/14 06:18:46;;;;;;;39.13;19.92;;;;;;;2.30;100.00;92777.69;4991753;28;19972;-78
2021/03/14 06:21:20;;;;;;;29.05;18.23;;;;;;;2.48;100.00;92772.34;5011029;28;20411;-77
2021/03/14 06:23:55;;;;;;;38.03;21.08;;;;;;;2.48;100.00;92759.66;5010832;28;20081;-81
2021/03/14 06:26:39;;;;;;;51.87;21.10;;;;;;;2.64;100.00;92780.78;5010763;28;20054;-82
2021/03/14 06:29:26;;;;;;;34.92;19.38;;;;;;;2.70;100.00;92766.63;5010845;28;20418;-83
2021/03/14 06:31:54;;;;;;;36.95;18.23;;;;;;;2.87;100.00;92779.94;5011006;28;20058;-78
2021/03/14 06:34:30;;;;;;;24.23;14.98;;;;;;;2.97;100.00;92772.88;4993140;28;20101;-79
2021/03/14 06:36:58;;;;;;;37.97;17.13;;;;;;;3.19;100.00;92785.66;4990930;28;20050;-78
2021/03/14 06:39:26;;;;;;;23.65;15.63;;;;;;;3.42;100.00;92774.63;4990950;28;20058;-77
2021/03/14 06:41:54;;;;;;;25.65;13.57;;;;;;;3.47;100.00;92772.34;4990985;28;20514;-77
2021/03/14 06:44:26;;;;;;;27.35;14.82;;;;;;;3.61;100.00;92771.53;4990797;28;20514;-77
2021/03/14 06:46:52;;;;;;;29.63;13.82;;;;;;;3.73;100.00;92771.88;4990809;28;20538;-77
2021/03/14 06:49:20;;;;;;;25.42;13.93;;;;;;;4.16;100.00;92769.56;4990963;28;20474;-78
2021/03/14 06:51:48;;;;;;;27.17;14.77;;;;;;;4.58;100.00;92762.88;4990794;28;20419;-77
2021/03/14 06:54:30;;;;;;;24.15;13.40;;;;;;;5.17;100.00;92772.88;4990649;28;20692;-78
2021/03/14 06:57:05;;;;;;;24.30;13.35;;;;;;;5.54;100.00;92763.28;4990664;28;20046;-77
2021/03/14 06:59:34;;;;;;;31.10;16.38;;;;;;;5.80;100.00;92759.28;4990439;28;20054;-77
2021/03/14 07:02:02;;;;;;;27.85;16.02;;;;;;;6.19;100.00;92759.59;4990410;28;20046;-78
2021/03/14 07:04:53;;;;;;;33.63;15.43;;;;;;;6.38;100.00;92740.19;4990851;28;20396;-77
2021/03/14 07:07:25;;;;;;;32.58;12.15;;;;;;;6.99;100.00;92764.91;4990717;28;20050;-78
2021/03/14 07:10:00;;;;;;;25.58;13.60;;;;;;;7.31;98.96;92765.06;4990656;28;20058;-77
2021/03/14 07:12:32;;;;;;;30.00;14.32;;;;;;;7.57;96.75;92768.53;4990329;28;20061;-78
2021/03/14 07:15:11;;;;;;;36.42;14.30;;;;;;;7.94;97.91;92757.75;4990256;28;20053;-78
2021/03/14 07:17:38;;;;;;;22.25;10.52;;;;;;;8.30;96.59;92764.06;4990312;28;20057;-77
2021/03/14 07:20:10;;;;;;;20.02;10.60;;;;;;;8.66;93.34;92765.22;5001235;28;20060;-77
2021/03/14 07:22:36;;;;;;;26.13;11.93;;;;;;;8.58;91.96;92727.09;5009730;28;20050;-77
2021/03/14 07:25:04;;;;;;;22.65;12.65;;;;;;;8.71;90.61;92726.22;5009996;28;20052;-77
2021/03/14 07:27:33;;;;;;;15.20;7.80;;;;;;;9.13;91.71;92740.22;5010219;28;20098;-77
2021/03/14 07:30:00;;;;;;;10.02;5.93;;;;;;;9.46;91.14;92736.53;5009814;28;20076;-76
2021/03/14 07:32:27;;;;;;;13.25;5.47;;;;;;;9.89;90.43;92730.50;5007150;28;20140;-78
2021/03/14 07:34:54;;;;;;;14.23;5.88;;;;;;;10.14;88.61;92732.16;4989904;28;20054;-78
2021/03/14 07:37:21;;;;;;;5.13;3.47;;;;;;;10.13;86.91;92720.31;4989859;28;20050;-78
2021/03/14 07:39:48;;;;;;;17.42;4.65;;;;;;;10.25;87.25;92709.31;4990040;28;20046;-78
2021/03/14 07:42:19;;;;;;;25.95;9.40;;;;;;;10.72;86.12;92694.97;4989997;28;20053;-78
2021/03/14 07:44:46;;;;;;;12.52;4.90;;;;;;;11.44;83.79;92734.28;4989651;28;20503;-78
2021/03/14 07:47:15;;;;;;;10.15;3.80;;;;;;;11.74;81.72;92736.69;4989750;28;20519;-77
2021/03/14 07:49:46;;;;;;;12.70;5.28;;;;;;;11.80;77.92;92727.25;4993947;28;20042;-77
2021/03/14 07:52:20;;;;;;;16.73;6.80;;;;;;;11.95;76.89;92723.41;5009863;28;20136;-77
2021/03/14 07:55:02;;;;;;;11.13;4.60;;;;;;;12.15;76.96;92728.97;5009106;28;20075;-77
2021/03/14 07:57:29;;;;;;;13.95;4.80;;;;;;;12.19;75.21;92706.13;5009161;28;20498;-77
2021/03/14 07:59:57;;;;;;;17.83;7.10;;;;;;;12.43;74.51;92719.66;5009436;28;20045;-77
2021/03/14 08:02:28;;;;;;;15.93;8.15;;;;;;;12.31;74.28;92720.72;5009783;28;20050;-78
2021/03/14 08:04:56;;;;;;;15.73;7.45;;;;;;;12.50;73.47;92708.41;5009186;28;20495;-77
2021/03/14 08:07:45;;;;;;;18.23;7.05;;;;;;;12.47;72.95;92707.09;5009272;28;20503;-77
2021/03/14 08:10:34;;;;;;;27.08;11.20;;;;;;;12.62;72.72;92709.09;5009102;28;20054;-77
2021/03/14 08:13:00;;;;;;;16.33;6.82;;;;;;;12.65;71.00;92708.63;5009249;28;20422;-78
2021/03/14 08:15:29;;;;;;;10.15;4.88;;;;;;;12.52;71.45;92707.16;5009158;28;20058;-78
2021/03/14 08:17:58;;;;;;;18.45;7.00;;;;;;;12.38;71.50;92700.75;5009034;28;20096;-78
2021/03/14 08:20:40;;;;;;;16.73;6.35;;;;;;;12.56;71.85;92699.75;4995225;28;20066;-78
2021/03/14 08:23:08;;;;;;;7.57;4.47;;;;;;;12.74;72.20;92703.88;4989534;28;20061;-77
2021/03/14 08:25:40;;;;;;;18.70;7.28;;;;;;;12.87;70.37;92683.94;4993635;28;20050;-77
2021/03/14 08:28:26;;;;;;;13.50;4.60;;;;;;;12.73;69.52;92675.75;4993438;28;20050;-77
2021/03/14 08:30:53;;;;;;;18.00;6.82;;;;;;;12.91;68.25;92703.84;4992931;28;20416;-77
2021/03/14 08:33:25;;;;;;;19.95;7.13;;;;;;;12.85;68.68;92684.19;4993530;28;20053;-77
2021/03/14 08:35:53;;;;;;;20.95;8.80;;;;;;;13.00;68.50;92703.47;4993522;28;20057;-77
2021/03/14 08:38:48;;;;;;;18.55;6.28;;;;;;;12.93;67.82;92695.88;4993103;28;20499;-77
2021/03/14 08:41:35;;;;;;;38.75;13.05;;;;;;;13.04;69.33;92699.38;4993472;28;20056;-77
2021/03/14 08:44:05;;;;;;;54.05;17.52;;;;;;;13.20;68.24;92693.41;5012847;28;20148;-77
2021/03/14 08:47:09;;;;;;;16.45;7.40;;;;;;;13.16;67.59;92687.19;4993017;28;20043;-78
2021/03/14 08:49:42;;;;;;;26.40;7.53;;;;;;;13.13;64.91;92692.81;4932721;29;20126;-78
2021/03/14 08:52:09;;;;;;;25.55;9.20;;;;;;;12.98;67.01;92687.44;4932535;29;20047;-78
2021/03/14 08:54:38;;;;;;;27.13;8.55;;;;;;;13.16;67.32;92694.94;4963953;28;20597;-78
2021/03/14 08:57:06;;;;;;;20.30;6.75;;;;;;;13.30;65.21;92689.41;5020474;28;20049;-78
2021/03/14 08:59:33;;;;;;;14.57;4.25;;;;;;;13.32;64.51;92695.09;5032345;28;20057;-77
2021/03/14 09:01:59;;;;;;;;;;;;;;;13.38;64.23;92690.78;5032227;28;20061;-78
2021/03/14 09:04:29;;;;;;;13.63;4.28;;;;;;;13.29;63.93;92698.94;5032299;28;19925;-78
2021/03/14 09:07:06;;;;;;;6.22;2.75;;;;;;;13.31;63.19;92696.91;5032279;28;20049;-80
2021/03/14 09:09:33;;;;;;;40.70;14.02;;;;;;;13.27;63.44;92677.78;4992639;28;20052;-79
2021/03/14 09:12:04;;;;;;;32.60;11.00;;;;;;;13.27;64.13;92682.13;4992803;28;20053;-80
2021/03/14 09:14:35;;;;;;;27.55;10.52;;;;;;;13.19;63.38;92684.13;4992502;28;20050;-79
2021/03/14 09:17:05;;;;;;;25.98;9.85;;;;;;;13.36;64.13;92686.66;4992783;28;20526;-79
2021/03/14 09:19:44;;;;;;;11.25;6.38;;;;;;;13.07;64.11;92671.34;4999263;28;20054;-79
2021/03/14 09:22:14;;;;;;;10.35;4.50;;;;;;;13.09;65.35;92663.34;5011516;28;20510;-78
2021/03/14 09:24:42;;;;;;;6.45;2.28;;;;;;;13.27;65.16;92662.28;5012169;28;20073;-81
2021/03/14 09:27:11;;;;;;;7.20;3.25;;;;;;;13.65;63.37;92669.47;5012390;28;20046;-81
2021/03/14 09:29:50;;;;;;;8.25;3.25;;;;;;;13.68;62.36;92661.22;5012195;28;20050;-81
2021/03/14 09:32:37;;;;;;;6.25;2.15;;;;;;;14.08;60.80;92660.09;5011191;28;20458;-81
2021/03/14 09:35:14;;;;;;;6.82;3.80;;;;;;;14.41;61.75;92658.25;4991104;28;20128;-81
2021/03/14 09:37:41;;;;;;;6.75;3.88;;;;;;;14.63;59.49;92641.88;4992018;28;20496;-81
2021/03/14 09:40:10;;;;;;;8.30;4.03;;;;;;;14.96;58.92;92647.78;4991986;28;20081;-81
2021/03/14 09:42:37;;;;;;;4.43;1.83;;;;;;;14.79;57.59;92649.78;4992025;28;20046;-81
2021/03/14 09:45:09;;;;;;;3.97;1.17;;;;;;;14.56;58.53;92644.69;4992135;28;20054;-81
2021/03/14 09:47:36;;;;;;;10.73;5.97;;;;;;;14.83;58.02;92645.66;4992253;28;20146;-81
2021/03/14 09:50:05;;;;;;;8.00;3.47;;;;;;;15.03;58.51;92637.25;4992006;28;20051;-82
2021/03/14 09:52:33;;;;;;;10.73;4.38;;;;;;;15.47;56.60;92648.28;4992078;28;20042;-82
2021/03/14 09:54:59;;;;;;;7.68;2.53;;;;;;;15.50;53.46;92648.56;4992119;28;20420;-82
2021/03/14 09:57:26;;;;;;;9.90;3.42;;;;;;;15.14;55.34;92634.72;4812082;28;5001103;-81
2021/03/14 09:59:52;;;;;;;;;;;;;;;15.05;55.88;92644.75;4992021;28;20058;-81
2021/03/14 10:02:19;;;;;;;42.53;11.20;;;;;;;15.12;52.82;92641.91;4991825;28;19932;-82
2021/03/14 10:04:46;;;;;;;28.67;8.60;;;;;;;15.19;52.77;92640.66;4991680;28;20046;-81
2021/03/14 10:07:23;;;;;;;40.30;10.68;;;;;;;15.27;52.87;92636.06;4991855;28;20081;-81
2021/03/14 10:09:50;;;;;;;5.78;2.65;;;;;;;15.14;51.32;92624.34;4991718;28;20053;-81
2021/03/14 10:12:17;;;;;;;13.13;4.20;;;;;;;15.17;51.12;92624.63;4986986;28;20054;-81
2021/03/14 10:14:44;;;;;;;43.85;12.32;;;;;;;15.15;51.76;92623.31;4991582;28;20506;-81
2021/03/14 10:17:11;;;;;;;31.25;8.32;;;;;;;15.45;51.09;92627.84;4991723;28;20057;-81
2021/03/14 10:19:38;;;;;;;15.95;3.80;;;;;;;15.76;50.97;92617.56;4998952;28;20159;-81
2021/03/14 10:22:04;;;;;;;32.97;9.85;;;;;;;15.79;48.33;92611.09;5010797;28;20054;-81
2021/03/14 10:24:32;;;;;;;;;;;;;;;16.03;49.32;92610.63;5011278;28;20057;-81
2021/03/14 10:27:00;;;;;;;19.13;5.32;;;;;;;16.23;49.35;92609.88;5010836;28;19960;-81
2021/03/14 10:29:31;;;;;;;36.50;10.85;;;;;;;16.32;47.72;92611.94;5010797;28;20053;-80
2021/03/14 10:31:58;;;;;;;27.98;7.63;;;;;;;16.23;46.61;92609.06;5011042;28;20049;-80
2021/03/14 10:34:25;;;;;;;54.25;15.85;;;;;;;16.10;47.45;92618.16;4992364;28;20054;-80
2021/03/14 10:36:52;;;;;;;53.17;11.55;;;;;;;16.03;48.59;92608.81;4990995;28;20083;-80
2021/03/14 10:39:26;;;;;;;66.28;17.80;;;;;;;15.77;47.59;92582.09;4990916;28;20423;-80
2021/03/14 10:41:52;;;;;;;6.63;2.97;;;;;;;15.82;48.23;92592.44;4991206;28;20055;-80
2021/03/14 10:44:21;;;;;;;66.20;15.10;;;;;;;15.93;47.14;92598.47;4990650;28;20042;-80
2021/03/14 10:46:50;;;;;;;33.70;9.27;;;;;;;15.99;47.51;92592.25;4990217;28;20569;-80
2021/03/14 10:49:18;;;;;;;17.55;6.32;;;;;;;16.15;46.87;92568.91;4991163;28;20050;-81
2021/03/14 10:51:49;;;;;;;11.68;4.00;;;;;;;16.19;46.97;92551.06;4990651;28;20050;-81
2021/03/14 10:54:17;;;;;;;4.72;2.28;;;;;;;16.27;46.92;92569.44;4990528;28;20512;-81
2021/03/14 10:56:45;;;;;;;8.23;3.10;;;;;;;16.22;47.22;92564.25;4990756;28;20054;-81
2021/03/14 10:59:27;;;;;;;7.53;3.50;;;;;;;15.86;47.22;92572.78;4990771;28;20058;-81
2021/03/14 11:02:13;;;;;;;2.50;1.40;;;;;;;15.57;46.98;92567.28;4990676;28;20078;-80
2021/03/14 11:04:39;;;;;;;;;;;;;;;15.38;47.64;92561.81;4991155;28;20418;-81
2021/03/14 11:07:24;;;;;;;4.97;1.20;;;;;;;15.39;48.34;92561.56;4990572;28;20283;-81
2021/03/14 11:09:50;;;;;;;20.23;8.15;;;;;;;15.43;49.30;92560.03;4990692;28;20050;-81
2021/03/14 11:12:30;;;;;;;15.00;7.07;;;;;;;15.86;48.92;92546.88;4990593;28;20412;-80
2021/03/14 11:14:57;;;;;;;14.95;6.97;;;;;;;16.30;47.56;92521.50;4990569;28;20070;-81
2021/03/14 11:17:29;;;;;;;6.43;2.67;;;;;;;16.21;47.28;92531.63;4990475;28;20775;-81
2021/03/14 11:19:56;;;;;;;29.00;11.65;;;;;;;16.34;48.76;92522.50;4999978;28;20049;-81
2021/03/14 11:22:23;;;;;;;56.92;21.88;;;;;;;16.35;48.47;92525.88;5009812;28;20053;-81
2021/03/14 11:24:50;;;;;;;12.57;4.63;;;;;;;16.12;48.53;92517.63;5009687;28;20041;-81
2021/03/14 11:27:17;;;;;;;15.13;6.15;;;;;;;15.95;48.95;92517.88;5009976;28;20447;-81
2021/03/14 11:29:49;;;;;;;6.13;2.67;;;;;;;15.83;49.32;92510.38;5009800;28;20478;-80
2021/03/14 11:32:17;;;;;;;11.35;5.00;;;;;;;15.45;48.58;92471.75;5009777;28;20443;-81
2021/03/14 11:34:47;;;;;;;3.92;1.90;;;;;;;15.38;49.27;92497.91;5009786;28;20436;-81
2021/03/14 11:37:15;;;;;;;3.08;1.70;;;;;;;15.30;49.65;92496.59;5009205;28;20049;-81